sensor_id;sensor_type;location;lat;lon;timestamp;P1;durP1;ratioP1;P2;durP2;ratioP2
30862;SDS011;17573;55.922;37.540;2023-11-19T00:00:25;53.28;;;23.17;;
30862;SDS011;17573;55.922;37.540;2023-11-19T00:02:51;54.03;;;21.13;;
30862;SDS011;17573;55.922;37.540;2023-11-19T00:05:17;49.40;;;19.13;;
30862;SDS011;17573;55.922;37.540;2023-11-19T00:07:44;51.33;;;21.15;;
30862;SDS011;17573;55.922;37.540;2023-11-19T00:10:11;48.95;;;20.23;;
30862;SDS011;17573;55.922;37.540;2023-11-19T00:12:42;45.80;;;22.08;;
30862;SDS011;17573;55.922;37.540;2023-11-19T00:15:08;58.25;;;19.88;;
30862;SDS011;17573;55.922;37.540;2023-11-19T00:17:37;44.97;;;17.60;;
30862;SDS011;17573;55.922;37.540;2023-11-19T00:20:06;37.63;;;18.33;;
30862;SDS011;17573;55.922;37.540;2023-11-19T00:22:33;45.35;;;20.15;;
30862;SDS011;17573;55.922;37.540;2023-11-19T00:24:59;36.55;;;20.40;;
30862;SDS011;17573;55.922;37.540;2023-11-19T00:27:26;42.95;;;20.40;;
30862;SDS011;17573;55.922;37.540;2023-11-19T00:29:51;46.55;;;18.73;;
30862;SDS011;17573;55.922;37.540;2023-11-19T00:32:17;41.53;;;20.38;;
30862;SDS011;17573;55.922;37.540;2023-11-19T00:34:46;39.47;;;20.55;;
30862;SDS011;17573;55.922;37.540;2023-11-19T00:37:16;39.92;;;20.13;;
30862;SDS011;17573;55.922;37.540;2023-11-19T00:39:42;44.58;;;21.05;;
30862;SDS011;17573;55.922;37.540;2023-11-19T00:42:11;42.78;;;20.48;;
30862;SDS011;17573;55.922;37.540;2023-11-19T00:44:37;40.00;;;19.20;;
30862;SDS011;17573;55.922;37.540;2023-11-19T00:47:03;51.70;;;21.95;;
30862;SDS011;17573;55.922;37.540;2023-11-19T00:49:31;40.45;;;20.30;;
30862;SDS011;17573;55.922;37.540;2023-11-19T00:52:00;46.25;;;21.83;;
30862;SDS011;17573;55.922;37.540;2023-11-19T00:54:27;52.75;;;21.27;;
30862;SDS011;17573;55.922;37.540;2023-11-19T00:56:54;48.65;;;21.45;;
30862;SDS011;17573;55.922;37.540;2023-11-19T00:59:20;61.53;;;25.33;;
30862;SDS011;17573;55.922;37.540;2023-11-19T01:01:47;49.40;;;20.15;;
30862;SDS011;17573;55.922;37.540;2023-11-19T01:04:19;57.85;;;22.85;;
30862;SDS011;17573;55.922;37.540;2023-11-19T01:06:45;62.65;;;25.20;;
30862;SDS011;17573;55.922;37.540;2023-11-19T01:09:11;46.85;;;22.95;;
30862;SDS011;17573;55.922;37.540;2023-11-19T01:11:37;46.97;;;21.60;;
30862;SDS011;17573;55.922;37.540;2023-11-19T01:14:03;58.28;;;23.08;;
30862;SDS011;17573;55.922;37.540;2023-11-19T01:16:29;40.33;;;19.85;;
30862;SDS011;17573;55.922;37.540;2023-11-19T01:18:55;47.17;;;22.92;;
30862;SDS011;17573;55.922;37.540;2023-11-19T01:21:21;48.97;;;21.33;;
30862;SDS011;17573;55.922;37.540;2023-11-19T01:23:47;45.28;;;21.60;;
30862;SDS011;17573;55.922;37.540;2023-11-19T01:26:13;35.80;;;20.95;;
30862;SDS011;17573;55.922;37.540;2023-11-19T01:28:39;41.88;;;18.95;;
30862;SDS011;17573;55.922;37.540;2023-11-19T01:31:19;49.35;;;21.23;;
30862;SDS011;17573;55.922;37.540;2023-11-19T01:33:45;42.70;;;22.30;;
30862;SDS011;17573;55.922;37.540;2023-11-19T01:36:14;56.67;;;21.05;;
30862;SDS011;17573;55.922;37.540;2023-11-19T01:38:41;40.53;;;19.92;;
30862;SDS011;17573;55.922;37.540;2023-11-19T01:41:07;44.00;;;20.17;;
30862;SDS011;17573;55.922;37.540;2023-11-19T01:43:38;45.78;;;19.88;;
30862;SDS011;17573;55.922;37.540;2023-11-19T01:46:07;48.88;;;21.27;;
30862;SDS011;17573;55.922;37.540;2023-11-19T01:48:37;42.40;;;21.27;;
30862;SDS011;17573;55.922;37.540;2023-11-19T01:51:08;68.65;;;22.40;;
30862;SDS011;17573;55.922;37.540;2023-11-19T01:53:35;43.30;;;23.67;;
30862;SDS011;17573;55.922;37.540;2023-11-19T01:56:02;59.33;;;23.45;;
30862;SDS011;17573;55.922;37.540;2023-11-19T01:58:29;65.78;;;24.20;;
30862;SDS011;17573;55.922;37.540;2023-11-19T02:00:56;55.47;;;23.58;;
30862;SDS011;17573;55.922;37.540;2023-11-19T02:03:22;45.20;;;23.00;;
30862;SDS011;17573;55.922;37.540;2023-11-19T02:05:48;44.03;;;20.77;;
30862;SDS011;17573;55.922;37.540;2023-11-19T02:08:16;58.13;;;22.65;;
30862;SDS011;17573;55.922;37.540;2023-11-19T02:10:42;58.35;;;25.08;;
30862;SDS011;17573;55.922;37.540;2023-11-19T02:13:08;68.13;;;26.88;;
30862;SDS011;17573;55.922;37.540;2023-11-19T02:15:35;60.15;;;26.13;;
30862;SDS011;17573;55.922;37.540;2023-11-19T02:18:18;45.72;;;23.05;;
30862;SDS011;17573;55.922;37.540;2023-11-19T02:20:45;44.05;;;22.60;;
30862;SDS011;17573;55.922;37.540;2023-11-19T02:23:13;46.30;;;23.27;;
30862;SDS011;17573;55.922;37.540;2023-11-19T02:25:39;43.05;;;21.83;;
30862;SDS011;17573;55.922;37.540;2023-11-19T02:28:06;53.75;;;23.30;;
30862;SDS011;17573;55.922;37.540;2023-11-19T02:30:33;51.55;;;21.70;;
30862;SDS011;17573;55.922;37.540;2023-11-19T02:32:59;49.50;;;21.15;;
30862;SDS011;17573;55.922;37.540;2023-11-19T02:35:29;56.85;;;24.58;;
30862;SDS011;17573;55.922;37.540;2023-11-19T02:37:58;56.88;;;23.48;;
30862;SDS011;17573;55.922;37.540;2023-11-19T02:40:29;71.32;;;22.63;;
30862;SDS011;17573;55.922;37.540;2023-11-19T02:42:55;59.17;;;24.80;;
30862;SDS011;17573;55.922;37.540;2023-11-19T02:45:22;51.35;;;25.30;;
30862;SDS011;17573;55.922;37.540;2023-11-19T02:47:48;58.22;;;24.35;;
30862;SDS011;17573;55.922;37.540;2023-11-19T02:50:14;59.90;;;24.83;;
30862;SDS011;17573;55.922;37.540;2023-11-19T02:52:44;55.88;;;23.83;;
30862;SDS011;17573;55.922;37.540;2023-11-19T02:55:12;60.20;;;26.20;;
30862;SDS011;17573;55.922;37.540;2023-11-19T02:57:39;62.40;;;27.70;;
30862;SDS011;17573;55.922;37.540;2023-11-19T03:00:13;65.25;;;26.92;;
30862;SDS011;17573;55.922;37.540;2023-11-19T03:02:41;48.45;;;25.42;;
30862;SDS011;17573;55.922;37.540;2023-11-19T03:05:19;61.65;;;25.40;;
30862;SDS011;17573;55.922;37.540;2023-11-19T03:07:45;63.55;;;24.95;;
30862;SDS011;17573;55.922;37.540;2023-11-19T03:10:11;83.95;;;27.73;;
30862;SDS011;17573;55.922;37.540;2023-11-19T03:12:41;69.28;;;26.13;;
30862;SDS011;17573;55.922;37.540;2023-11-19T03:15:07;50.28;;;22.00;;
30862;SDS011;17573;55.922;37.540;2023-11-19T03:17:39;54.33;;;28.15;;
30862;SDS011;17573;55.922;37.540;2023-11-19T03:20:06;49.88;;;24.05;;
30862;SDS011;17573;55.922;37.540;2023-11-19T03:22:36;67.75;;;25.20;;
30862;SDS011;17573;55.922;37.540;2023-11-19T03:25:03;66.32;;;25.00;;
30862;SDS011;17573;55.922;37.540;2023-11-19T03:27:31;61.00;;;26.65;;
30862;SDS011;17573;55.922;37.540;2023-11-19T03:29:57;59.63;;;23.88;;
30862;SDS011;17573;55.922;37.540;2023-11-19T03:32:23;57.63;;;25.45;;
30862;SDS011;17573;55.922;37.540;2023-11-19T03:34:49;59.45;;;25.98;;
30862;SDS011;17573;55.922;37.540;2023-11-19T03:37:15;72.13;;;26.13;;
30862;SDS011;17573;55.922;37.540;2023-11-19T03:39:43;56.75;;;24.77;;
30862;SDS011;17573;55.922;37.540;2023-11-19T03:42:09;61.20;;;24.38;;
30862;SDS011;17573;55.922;37.540;2023-11-19T03:44:35;86.03;;;26.58;;
30862;SDS011;17573;55.922;37.540;2023-11-19T03:47:01;96.00;;;34.33;;
30862;SDS011;17573;55.922;37.540;2023-11-19T03:49:27;88.47;;;35.83;;
30862;SDS011;17573;55.922;37.540;2023-11-19T03:51:53;69.68;;;29.13;;
30862;SDS011;17573;55.922;37.540;2023-11-19T03:54:19;104.55;;;41.55;;
30862;SDS011;17573;55.922;37.540;2023-11-19T03:56:47;71.20;;;29.13;;
30862;SDS011;17573;55.922;37.540;2023-11-19T03:59:13;74.68;;;33.90;;
30862;SDS011;17573;55.922;37.540;2023-11-19T04:01:38;101.25;;;40.28;;
30862;SDS011;17573;55.922;37.540;2023-11-19T04:04:05;106.32;;;34.72;;
30862;SDS011;17573;55.922;37.540;2023-11-19T04:06:31;69.78;;;31.52;;
30862;SDS011;17573;55.922;37.540;2023-11-19T04:08:57;91.07;;;33.08;;
30862;SDS011;17573;55.922;37.540;2023-11-19T04:11:23;64.88;;;30.63;;
30862;SDS011;17573;55.922;37.540;2023-11-19T04:13:49;65.15;;;28.65;;
30862;SDS011;17573;55.922;37.540;2023-11-19T04:16:14;64.40;;;29.52;;
30862;SDS011;17573;55.922;37.540;2023-11-19T04:18:40;67.50;;;27.95;;
30862;SDS011;17573;55.922;37.540;2023-11-19T04:21:07;117.90;;;31.00;;
30862;SDS011;17573;55.922;37.540;2023-11-19T04:23:33;73.13;;;28.95;;
30862;SDS011;17573;55.922;37.540;2023-11-19T04:26:01;71.65;;;29.17;;
30862;SDS011;17573;55.922;37.540;2023-11-19T04:28:30;65.05;;;28.13;;
30862;SDS011;17573;55.922;37.540;2023-11-19T04:30:56;79.53;;;29.27;;
30862;SDS011;17573;55.922;37.540;2023-11-19T04:33:24;65.43;;;27.25;;
30862;SDS011;17573;55.922;37.540;2023-11-19T04:35:50;58.85;;;25.42;;
30862;SDS011;17573;55.922;37.540;2023-11-19T04:38:16;57.03;;;24.73;;
30862;SDS011;17573;55.922;37.540;2023-11-19T04:40:42;62.40;;;25.70;;
30862;SDS011;17573;55.922;37.540;2023-11-19T04:43:09;66.03;;;26.08;;
30862;SDS011;17573;55.922;37.540;2023-11-19T04:45:35;67.50;;;29.13;;
30862;SDS011;17573;55.922;37.540;2023-11-19T04:48:02;87.72;;;26.65;;
30862;SDS011;17573;55.922;37.540;2023-11-19T04:50:28;77.03;;;28.17;;
30862;SDS011;17573;55.922;37.540;2023-11-19T04:52:54;75.40;;;29.13;;
30862;SDS011;17573;55.922;37.540;2023-11-19T04:55:21;60.83;;;28.65;;
30862;SDS011;17573;55.922;37.540;2023-11-19T04:57:47;70.40;;;26.48;;
30862;SDS011;17573;55.922;37.540;2023-11-19T05:00:14;69.35;;;28.65;;
30862;SDS011;17573;55.922;37.540;2023-11-19T05:02:40;79.70;;;28.90;;
30862;SDS011;17573;55.922;37.540;2023-11-19T05:05:06;72.05;;;32.00;;
30862;SDS011;17573;55.922;37.540;2023-11-19T05:07:32;70.93;;;30.60;;
30862;SDS011;17573;55.922;37.540;2023-11-19T05:10:00;63.08;;;28.10;;
30862;SDS011;17573;55.922;37.540;2023-11-19T05:12:26;85.03;;;29.40;;
30862;SDS011;17573;55.922;37.540;2023-11-19T05:14:52;73.30;;;32.25;;
30862;SDS011;17573;55.922;37.540;2023-11-19T05:17:18;87.88;;;31.83;;
30862;SDS011;17573;55.922;37.540;2023-11-19T05:19:44;88.43;;;34.83;;
30862;SDS011;17573;55.922;37.540;2023-11-19T05:22:11;72.20;;;31.73;;
30862;SDS011;17573;55.922;37.540;2023-11-19T05:24:38;68.60;;;30.48;;
30862;SDS011;17573;55.922;37.540;2023-11-19T05:27:04;79.32;;;32.00;;
30862;SDS011;17573;55.922;37.540;2023-11-19T05:29:32;78.32;;;31.70;;
30862;SDS011;17573;55.922;37.540;2023-11-19T05:31:58;86.90;;;31.80;;
30862;SDS011;17573;55.922;37.540;2023-11-19T05:34:24;87.57;;;32.17;;
30862;SDS011;17573;55.922;37.540;2023-11-19T05:36:50;88.05;;;31.77;;
30862;SDS011;17573;55.922;37.540;2023-11-19T05:39:16;107.30;;;31.83;;
30862;SDS011;17573;55.922;37.540;2023-11-19T05:41:44;105.63;;;33.50;;
30862;SDS011;17573;55.922;37.540;2023-11-19T05:44:10;101.13;;;34.33;;
30862;SDS011;17573;55.922;37.540;2023-11-19T05:46:35;88.07;;;32.13;;
30862;SDS011;17573;55.922;37.540;2023-11-19T05:49:06;71.93;;;31.58;;
30862;SDS011;17573;55.922;37.540;2023-11-19T05:51:32;82.30;;;32.83;;
30862;SDS011;17573;55.922;37.540;2023-11-19T05:53:57;85.93;;;32.88;;
30862;SDS011;17573;55.922;37.540;2023-11-19T05:56:23;71.32;;;29.25;;
30862;SDS011;17573;55.922;37.540;2023-11-19T05:58:50;67.85;;;31.20;;
30862;SDS011;17573;55.922;37.540;2023-11-19T06:01:16;79.93;;;34.40;;
30862;SDS011;17573;55.922;37.540;2023-11-19T06:03:42;71.97;;;32.10;;
30862;SDS011;17573;55.922;37.540;2023-11-19T06:06:08;91.25;;;31.73;;
30862;SDS011;17573;55.922;37.540;2023-11-19T06:08:35;99.00;;;34.05;;
30862;SDS011;17573;55.922;37.540;2023-11-19T06:11:01;72.20;;;31.83;;
30862;SDS011;17573;55.922;37.540;2023-11-19T06:13:27;66.20;;;31.42;;
30862;SDS011;17573;55.922;37.540;2023-11-19T06:15:53;81.85;;;32.78;;
30862;SDS011;17573;55.922;37.540;2023-11-19T06:18:19;75.50;;;31.42;;
30862;SDS011;17573;55.922;37.540;2023-11-19T06:20:45;65.95;;;32.35;;
30862;SDS011;17573;55.922;37.540;2023-11-19T06:23:11;83.38;;;31.65;;
30862;SDS011;17573;55.922;37.540;2023-11-19T06:25:38;85.30;;;34.92;;
30862;SDS011;17573;55.922;37.540;2023-11-19T06:28:04;81.82;;;33.92;;
30862;SDS011;17573;55.922;37.540;2023-11-19T06:30:30;63.08;;;30.60;;
30862;SDS011;17573;55.922;37.540;2023-11-19T06:32:58;82.70;;;32.03;;
30862;SDS011;17573;55.922;37.540;2023-11-19T06:35:25;84.88;;;33.75;;
30862;SDS011;17573;55.922;37.540;2023-11-19T06:37:51;67.43;;;27.70;;
30862;SDS011;17573;55.922;37.540;2023-11-19T06:40:16;73.18;;;30.58;;
30862;SDS011;17573;55.922;37.540;2023-11-19T06:42:43;79.40;;;31.98;;
30862;SDS011;17573;55.922;37.540;2023-11-19T06:45:09;83.03;;;31.15;;
30862;SDS011;17573;55.922;37.540;2023-11-19T06:47:36;70.57;;;29.27;;
30862;SDS011;17573;55.922;37.540;2023-11-19T06:50:02;87.90;;;29.25;;
30862;SDS011;17573;55.922;37.540;2023-11-19T06:52:31;72.22;;;30.45;;
30862;SDS011;17573;55.922;37.540;2023-11-19T06:54:56;65.45;;;28.75;;
30862;SDS011;17573;55.922;37.540;2023-11-19T06:57:22;66.00;;;28.23;;
30862;SDS011;17573;55.922;37.540;2023-11-19T06:59:49;47.75;;;22.77;;
30862;SDS011;17573;55.922;37.540;2023-11-19T07:02:15;45.53;;;22.25;;
30862;SDS011;17573;55.922;37.540;2023-11-19T07:04:41;76.63;;;25.75;;
30862;SDS011;17573;55.922;37.540;2023-11-19T07:07:06;96.95;;;28.05;;
30862;SDS011;17573;55.922;37.540;2023-11-19T07:09:32;67.78;;;25.60;;
30862;SDS011;17573;55.922;37.540;2023-11-19T07:11:59;70.00;;;25.23;;
30862;SDS011;17573;55.922;37.540;2023-11-19T07:14:27;72.72;;;24.67;;
30862;SDS011;17573;55.922;37.540;2023-11-19T07:16:54;82.75;;;29.08;;
30862;SDS011;17573;55.922;37.540;2023-11-19T07:19:21;64.75;;;26.92;;
30862;SDS011;17573;55.922;37.540;2023-11-19T07:21:47;66.15;;;27.50;;
30862;SDS011;17573;55.922;37.540;2023-11-19T07:24:13;48.22;;;24.05;;
30862;SDS011;17573;55.922;37.540;2023-11-19T07:26:46;49.80;;;23.45;;
30862;SDS011;17573;55.922;37.540;2023-11-19T07:29:13;63.53;;;24.05;;
30862;SDS011;17573;55.922;37.540;2023-11-19T07:31:39;61.08;;;27.70;;
30862;SDS011;17573;55.922;37.540;2023-11-19T07:34:05;56.78;;;25.27;;
30862;SDS011;17573;55.922;37.540;2023-11-19T07:36:32;58.50;;;24.63;;
30862;SDS011;17573;55.922;37.540;2023-11-19T07:38:58;76.55;;;26.45;;
30862;SDS011;17573;55.922;37.540;2023-11-19T07:41:24;65.32;;;26.30;;
30862;SDS011;17573;55.922;37.540;2023-11-19T07:43:51;66.97;;;25.38;;
30862;SDS011;17573;55.922;37.540;2023-11-19T07:46:18;57.00;;;25.23;;
30862;SDS011;17573;55.922;37.540;2023-11-19T07:48:45;65.07;;;22.70;;
30862;SDS011;17573;55.922;37.540;2023-11-19T07:51:13;53.95;;;23.98;;
30862;SDS011;17573;55.922;37.540;2023-11-19T07:53:39;45.13;;;23.20;;
30862;SDS011;17573;55.922;37.540;2023-11-19T07:56:07;49.20;;;24.90;;
30862;SDS011;17573;55.922;37.540;2023-11-19T07:58:33;50.88;;;25.65;;
30862;SDS011;17573;55.922;37.540;2023-11-19T08:01:00;63.03;;;24.73;;
30862;SDS011;17573;55.922;37.540;2023-11-19T08:03:27;63.55;;;25.40;;
30862;SDS011;17573;55.922;37.540;2023-11-19T08:05:58;75.45;;;24.75;;
30862;SDS011;17573;55.922;37.540;2023-11-19T08:08:24;54.60;;;23.30;;
30862;SDS011;17573;55.922;37.540;2023-11-19T08:10:50;63.70;;;26.00;;
30862;SDS011;17573;55.922;37.540;2023-11-19T08:13:17;52.47;;;25.58;;
30862;SDS011;17573;55.922;37.540;2023-11-19T08:15:44;62.95;;;27.60;;
30862;SDS011;17573;55.922;37.540;2023-11-19T08:18:10;50.17;;;26.33;;
30862;SDS011;17573;55.922;37.540;2023-11-19T08:20:36;59.05;;;26.60;;
30862;SDS011;17573;55.922;37.540;2023-11-19T08:23:02;65.50;;;31.10;;
30862;SDS011;17573;55.922;37.540;2023-11-19T08:25:29;64.68;;;25.90;;
30862;SDS011;17573;55.922;37.540;2023-11-19T08:27:55;62.58;;;27.20;;
30862;SDS011;17573;55.922;37.540;2023-11-19T08:30:21;67.78;;;30.25;;
30862;SDS011;17573;55.922;37.540;2023-11-19T08:32:46;56.05;;;27.98;;
30862;SDS011;17573;55.922;37.540;2023-11-19T08:35:12;66.35;;;27.00;;
30862;SDS011;17573;55.922;37.540;2023-11-19T08:37:38;63.53;;;27.02;;
30862;SDS011;17573;55.922;37.540;2023-11-19T08:40:05;46.10;;;24.80;;
30862;SDS011;17573;55.922;37.540;2023-11-19T08:42:32;58.08;;;26.50;;
30862;SDS011;17573;55.922;37.540;2023-11-19T08:44:58;53.95;;;25.35;;
30862;SDS011;17573;55.922;37.540;2023-11-19T08:47:24;49.97;;;25.63;;
30862;SDS011;17573;55.922;37.540;2023-11-19T08:49:53;57.10;;;26.52;;
30862;SDS011;17573;55.922;37.540;2023-11-19T08:52:20;46.35;;;26.48;;
30862;SDS011;17573;55.922;37.540;2023-11-19T08:54:46;54.63;;;26.17;;
30862;SDS011;17573;55.922;37.540;2023-11-19T08:57:12;57.75;;;28.23;;
30862;SDS011;17573;55.922;37.540;2023-11-19T08:59:38;60.30;;;30.33;;
30862;SDS011;17573;55.922;37.540;2023-11-19T09:02:05;89.03;;;29.92;;
30862;SDS011;17573;55.922;37.540;2023-11-19T09:04:31;66.97;;;27.83;;
30862;SDS011;17573;55.922;37.540;2023-11-19T09:06:57;62.33;;;30.13;;
30862;SDS011;17573;55.922;37.540;2023-11-19T09:09:23;53.40;;;28.23;;
30862;SDS011;17573;55.922;37.540;2023-11-19T09:11:49;54.88;;;26.80;;
30862;SDS011;17573;55.922;37.540;2023-11-19T09:14:15;65.70;;;30.05;;
30862;SDS011;17573;55.922;37.540;2023-11-19T09:16:41;79.32;;;34.55;;
30862;SDS011;17573;55.922;37.540;2023-11-19T09:19:07;61.20;;;29.75;;
30862;SDS011;17573;55.922;37.540;2023-11-19T09:21:33;66.95;;;31.08;;
30862;SDS011;17573;55.922;37.540;2023-11-19T09:24:02;56.95;;;26.80;;
30862;SDS011;17573;55.922;37.540;2023-11-19T09:26:28;45.78;;;23.85;;
30862;SDS011;17573;55.922;37.540;2023-11-19T09:28:54;50.75;;;24.55;;
30862;SDS011;17573;55.922;37.540;2023-11-19T09:31:20;47.25;;;24.23;;
30862;SDS011;17573;55.922;37.540;2023-11-19T09:33:45;52.90;;;23.50;;
30862;SDS011;17573;55.922;37.540;2023-11-19T09:36:12;65.93;;;25.77;;
30862;SDS011;17573;55.922;37.540;2023-11-19T09:38:39;44.75;;;26.23;;
30862;SDS011;17573;55.922;37.540;2023-11-19T09:41:05;65.57;;;25.83;;
30862;SDS011;17573;55.922;37.540;2023-11-19T09:43:35;52.33;;;24.95;;
30862;SDS011;17573;55.922;37.540;2023-11-19T09:46:04;70.30;;;25.52;;
30862;SDS011;17573;55.922;37.540;2023-11-19T09:48:35;58.40;;;27.02;;
30862;SDS011;17573;55.922;37.540;2023-11-19T09:51:06;68.28;;;27.75;;
30862;SDS011;17573;55.922;37.540;2023-11-19T09:53:33;50.72;;;25.38;;
30862;SDS011;17573;55.922;37.540;2023-11-19T09:56:00;43.38;;;24.48;;
30862;SDS011;17573;55.922;37.540;2023-11-19T09:58:29;51.70;;;24.83;;
30862;SDS011;17573;55.922;37.540;2023-11-19T10:00:56;37.15;;;21.52;;
30862;SDS011;17573;55.922;37.540;2023-11-19T10:03:31;60.78;;;25.30;;
30862;SDS011;17573;55.922;37.540;2023-11-19T10:06:03;42.75;;;21.45;;
30862;SDS011;17573;55.922;37.540;2023-11-19T10:08:30;45.35;;;25.42;;
30862;SDS011;17573;55.922;37.540;2023-11-19T10:10:56;68.90;;;24.63;;
30862;SDS011;17573;55.922;37.540;2023-11-19T10:13:28;59.80;;;26.17;;
30862;SDS011;17573;55.922;37.540;2023-11-19T10:18:24;49.42;;;23.58;;
30862;SDS011;17573;55.922;37.540;2023-11-19T10:20:51;51.25;;;25.35;;
30862;SDS011;17573;55.922;37.540;2023-11-19T10:23:17;55.33;;;26.80;;
30862;SDS011;17573;55.922;37.540;2023-11-19T10:25:43;56.53;;;26.15;;
30862;SDS011;17573;55.922;37.540;2023-11-19T10:28:08;52.67;;;25.58;;
30862;SDS011;17573;55.922;37.540;2023-11-19T10:30:34;51.75;;;25.73;;
30862;SDS011;17573;55.922;37.540;2023-11-19T10:35:56;61.78;;;25.58;;
30862;SDS011;17573;55.922;37.540;2023-11-19T10:38:22;62.22;;;27.88;;
30862;SDS011;17573;55.922;37.540;2023-11-19T10:40:49;60.53;;;24.15;;
30862;SDS011;17573;55.922;37.540;2023-11-19T10:43:17;58.05;;;27.42;;
30862;SDS011;17573;55.922;37.540;2023-11-19T10:45:43;44.70;;;24.38;;
30862;SDS011;17573;55.922;37.540;2023-11-19T10:48:09;53.08;;;27.58;;
30862;SDS011;17573;55.922;37.540;2023-11-19T10:50:37;60.65;;;29.98;;
30862;SDS011;17573;55.922;37.540;2023-11-19T10:53:04;57.65;;;29.85;;
30862;SDS011;17573;55.922;37.540;2023-11-19T10:55:31;60.40;;;29.73;;
30862;SDS011;17573;55.922;37.540;2023-11-19T10:58:08;56.63;;;28.73;;
30862;SDS011;17573;55.922;37.540;2023-11-19T11:00:57;53.90;;;29.23;;
30862;SDS011;17573;55.922;37.540;2023-11-19T11:03:25;62.05;;;30.65;;
30862;SDS011;17573;55.922;37.540;2023-11-19T11:05:53;66.97;;;29.30;;
30862;SDS011;17573;55.922;37.540;2023-11-19T11:08:20;62.58;;;30.30;;
30862;SDS011;17573;55.922;37.540;2023-11-19T11:13:19;62.20;;;30.48;;
30862;SDS011;17573;55.922;37.540;2023-11-19T11:15:45;50.67;;;26.27;;
30862;SDS011;17573;55.922;37.540;2023-11-19T11:18:13;49.70;;;27.00;;
30862;SDS011;17573;55.922;37.540;2023-11-19T11:20:39;56.55;;;27.30;;
30862;SDS011;17573;55.922;37.540;2023-11-19T11:26:25;50.53;;;27.25;;
30862;SDS011;17573;55.922;37.540;2023-11-19T11:28:52;55.70;;;27.15;;
30862;SDS011;17573;55.922;37.540;2023-11-19T11:31:36;52.35;;;28.30;;
30862;SDS011;17573;55.922;37.540;2023-11-19T11:34:21;56.08;;;27.15;;
30862;SDS011;17573;55.922;37.540;2023-11-19T11:39:35;50.78;;;27.10;;
30862;SDS011;17573;55.922;37.540;2023-11-19T11:48:07;50.22;;;25.73;;
30862;SDS011;17573;55.922;37.540;2023-11-19T11:50:25;53.55;;;25.98;;
30862;SDS011;17573;55.922;37.540;2023-11-19T11:58:00;60.80;;;25.70;;
30862;SDS011;17573;55.922;37.540;2023-11-19T12:03:01;54.85;;;25.13;;
30862;SDS011;17573;55.922;37.540;2023-11-19T12:05:29;53.83;;;25.02;;
30862;SDS011;17573;55.922;37.540;2023-11-19T12:07:56;47.03;;;21.73;;
30862;SDS011;17573;55.922;37.540;2023-11-19T12:10:24;50.75;;;22.77;;
30862;SDS011;17573;55.922;37.540;2023-11-19T12:12:53;40.75;;;21.80;;
30862;SDS011;17573;55.922;37.540;2023-11-19T12:15:21;42.25;;;22.73;;
30862;SDS011;17573;55.922;37.540;2023-11-19T12:17:50;57.35;;;24.70;;
30862;SDS011;17573;55.922;37.540;2023-11-19T12:20:17;49.53;;;24.48;;
30862;SDS011;17573;55.922;37.540;2023-11-19T12:22:45;44.00;;;18.85;;
30862;SDS011;17573;55.922;37.540;2023-11-19T12:25:11;49.72;;;20.90;;
30862;SDS011;17573;55.922;37.540;2023-11-19T12:27:48;48.15;;;22.00;;
30862;SDS011;17573;55.922;37.540;2023-11-19T12:30:25;42.47;;;24.05;;
30862;SDS011;17573;55.922;37.540;2023-11-19T12:32:51;40.10;;;21.00;;
30862;SDS011;17573;55.922;37.540;2023-11-19T12:35:21;50.08;;;20.67;;
30862;SDS011;17573;55.922;37.540;2023-11-19T12:37:48;33.80;;;16.95;;
30862;SDS011;17573;55.922;37.540;2023-11-19T12:40:16;35.10;;;18.02;;
30862;SDS011;17573;55.922;37.540;2023-11-19T12:42:47;41.22;;;18.52;;
30862;SDS011;17573;55.922;37.540;2023-11-19T12:45:20;39.38;;;20.45;;
30862;SDS011;17573;55.922;37.540;2023-11-19T12:47:47;47.13;;;21.65;;
30862;SDS011;17573;55.922;37.540;2023-11-19T12:50:15;42.38;;;23.98;;
30862;SDS011;17573;55.922;37.540;2023-11-19T12:52:56;39.80;;;21.67;;
30862;SDS011;17573;55.922;37.540;2023-11-19T12:55:27;48.70;;;23.05;;
30862;SDS011;17573;55.922;37.540;2023-11-19T12:57:55;47.65;;;22.30;;
30862;SDS011;17573;55.922;37.540;2023-11-19T13:00:22;50.70;;;20.00;;
30862;SDS011;17573;55.922;37.540;2023-11-19T13:02:49;40.65;;;22.05;;
30862;SDS011;17573;55.922;37.540;2023-11-19T13:05:23;48.33;;;23.00;;
30862;SDS011;17573;55.922;37.540;2023-11-19T13:07:57;37.13;;;18.40;;
30862;SDS011;17573;55.922;37.540;2023-11-19T13:10:31;32.55;;;19.10;;
30862;SDS011;17573;55.922;37.540;2023-11-19T13:13:07;43.67;;;20.98;;
30862;SDS011;17573;55.922;37.540;2023-11-19T13:15:36;49.63;;;22.88;;
30862;SDS011;17573;55.922;37.540;2023-11-19T13:18:02;49.17;;;20.13;;
30862;SDS011;17573;55.922;37.540;2023-11-19T13:20:28;50.25;;;21.50;;
30862;SDS011;17573;55.922;37.540;2023-11-19T13:22:59;42.40;;;19.40;;
30862;SDS011;17573;55.922;37.540;2023-11-19T13:25:29;48.05;;;21.23;;
30862;SDS011;17573;55.922;37.540;2023-11-19T13:27:55;34.88;;;15.75;;
30862;SDS011;17573;55.922;37.540;2023-11-19T13:30:22;52.78;;;23.27;;
30862;SDS011;17573;55.922;37.540;2023-11-19T13:32:49;39.95;;;19.88;;
30862;SDS011;17573;55.922;37.540;2023-11-19T13:35:17;46.13;;;17.13;;
30862;SDS011;17573;55.922;37.540;2023-11-19T13:37:43;40.75;;;21.63;;
30862;SDS011;17573;55.922;37.540;2023-11-19T13:40:12;39.17;;;19.10;;
30862;SDS011;17573;55.922;37.540;2023-11-19T13:42:41;44.35;;;21.30;;
30862;SDS011;17573;55.922;37.540;2023-11-19T13:45:11;43.38;;;21.17;;
30862;SDS011;17573;55.922;37.540;2023-11-19T13:47:40;50.40;;;21.13;;
30862;SDS011;17573;55.922;37.540;2023-11-19T13:50:16;58.42;;;20.05;;
30862;SDS011;17573;55.922;37.540;2023-11-19T13:52:45;45.20;;;22.60;;
30862;SDS011;17573;55.922;37.540;2023-11-19T13:55:13;43.35;;;20.15;;
30862;SDS011;17573;55.922;37.540;2023-11-19T13:57:39;47.05;;;20.45;;
30862;SDS011;17573;55.922;37.540;2023-11-19T14:00:07;38.28;;;19.60;;
30862;SDS011;17573;55.922;37.540;2023-11-19T14:02:42;47.17;;;21.48;;
30862;SDS011;17573;55.922;37.540;2023-11-19T14:05:09;48.13;;;21.17;;
30862;SDS011;17573;55.922;37.540;2023-11-19T14:07:36;54.33;;;20.42;;
30862;SDS011;17573;55.922;37.540;2023-11-19T14:10:06;52.90;;;21.50;;
30862;SDS011;17573;55.922;37.540;2023-11-19T14:12:34;44.33;;;20.25;;
30862;SDS011;17573;55.922;37.540;2023-11-19T14:15:07;47.67;;;19.65;;
30862;SDS011;17573;55.922;37.540;2023-11-19T14:17:35;49.15;;;19.88;;
30862;SDS011;17573;55.922;37.540;2023-11-19T14:20:02;36.90;;;19.83;;
30862;SDS011;17573;55.922;37.540;2023-11-19T14:22:44;37.00;;;20.35;;
30862;SDS011;17573;55.922;37.540;2023-11-19T14:25:14;40.08;;;19.98;;
30862;SDS011;17573;55.922;37.540;2023-11-19T14:27:41;33.35;;;18.98;;
30862;SDS011;17573;55.922;37.540;2023-11-19T14:30:11;32.13;;;18.08;;
30862;SDS011;17573;55.922;37.540;2023-11-19T14:32:41;41.67;;;18.95;;
30862;SDS011;17573;55.922;37.540;2023-11-19T14:35:10;39.08;;;17.92;;
30862;SDS011;17573;55.922;37.540;2023-11-19T14:37:36;44.75;;;18.08;;